Terminal Aerodrome Forecast
Issued by NWS

Home | Current Version | Previous Version | Text Only | Print | Product List | Glossary On
Versions: 1 2 3 4 5 6 7 8 9 10 11 12 13 14 15 16 17 18 19 20 21 22
000
FTUS43 KAPX 300401 AAC
TAFPLN
TAF AMD
KPLN 300401Z 3004/3024 00000KT 3SM BR SKC
      TEMPO 3004/3008 1SM BR
     FM300800 00000KT 1SM BR SCT003
      TEMPO 3008/3012 1/2SM FG BKN003
     FM301300 VRB03KT P6SM SCT012
     FM301700 25008KT P6SM FEW150=

USA.gov is the U.S. government's official web portal to all federal, state and local government web resources and services.